Time;durP1;ratioP1;P1;durP2;ratioP2;P2;SDS_P1;SDS_P2;PMS_P1;PMS_P2;Temp;Humidity;BMP_temperature;BMP_pressure;BME280_temperature;BME280_humidity;BME280_pressure;Samples;Min_cycle;Max_cycle;Signal;HPM_P1;HPM_P2
2022/06/21 00:00:46;;;;;;;;;4.75;4.25;;;;;;;;4976830;28;8904;-83
2022/06/21 00:03:17;;;;;;;;;6.00;5.00;;;;;;;;4982531;28;8913;-85
2022/06/21 00:05:47;;;;;;;;;3.00;3.00;;;;;;;;4988514;28;9842;-84
2022/06/21 00:08:16;;;;;;;;;5.25;5.25;;;;;;;;4991124;28;8923;-84
2022/06/21 00:10:47;;;;;;;;;5.00;5.00;;;;;;;;4997663;28;8884;-84
2022/06/21 00:13:16;;;;;;;;;7.50;5.75;;;;;;;;4991600;28;8875;-86
2022/06/21 00:15:45;;;;;;;;;6.25;6.25;;;;;;;;4991972;28;8898;-86
2022/06/21 00:18:14;;;;;;;;;6.00;6.00;;;;;;;;4983419;28;8965;-88
2022/06/21 00:20:42;;;;;;;;;4.50;4.50;;;;;;;;4987456;28;8920;-87
2022/06/21 00:23:14;;;;;;;;;6.00;6.00;;;;;;;;4979231;28;8889;-88
2022/06/21 00:25:42;;;;;;;;;7.00;6.00;;;;;;;;4985382;28;8894;-86
2022/06/21 00:28:10;;;;;;;;;8.00;6.00;;;;;;;;4987982;28;8888;-86
2022/06/21 00:30:39;;;;;;;;;6.50;6.25;;;;;;;;4985281;28;9757;-87
2022/06/21 00:33:09;;;;;;;;;5.75;5.75;;;;;;;;4991881;28;8869;-87
2022/06/21 00:35:37;;;;;;;;;11.00;6.25;;;;;;;;4990322;28;8892;-87
2022/06/21 00:38:05;;;;;;;;;3.33;3.33;;;;;;;;4983079;28;8890;-87
2022/06/21 00:40:34;;;;;;;;;5.75;5.75;;;;;;;;4991155;28;8966;-87
2022/06/21 00:43:09;;;;;;;;;9.50;8.00;;;;;;;;4985632;28;8986;-87
2022/06/21 00:45:40;;;;;;;;;7.50;6.25;;;;;;;;4984710;28;8880;-87
2022/06/21 00:48:13;;;;;;;;;9.75;8.50;;;;;;;;4983787;28;8901;-84
2022/06/21 00:50:44;;;;;;;;;6.75;5.75;;;;;;;;4991466;28;8880;-86
2022/06/21 00:53:17;;;;;;;;;4.25;4.25;;;;;;;;4986255;28;8997;-84
2022/06/21 00:55:46;;;;;;;;;6.75;6.00;;;;;;;;4988642;28;8867;-89
2022/06/21 00:58:15;;;;;;;;;6.25;6.25;;;;;;;;4989078;28;8871;-88
2022/06/21 01:00:55;;;;;;;;;10.25;6.00;;;;;;;;4989349;28;8829;-88
2022/06/21 01:03:29;;;;;;;;;7.00;7.00;;;;;;;;4985712;28;8901;-87
2022/06/21 01:05:57;;;;;;;;;7.00;5.50;;;;;;;;4980692;28;8911;-87
2022/06/21 01:08:28;;;;;;;;;3.75;3.75;;;;;;;;4997179;28;8905;-85
2022/06/21 01:10:58;;;;;;;;;6.00;6.00;;;;;;;;4991290;28;8880;-85
2022/06/21 01:13:35;;;;;;;;;7.50;6.25;;;;;;;;4991262;28;8876;-85
2022/06/21 01:16:04;;;;;;;;;5.75;5.50;;;;;;;;4989742;28;8890;-86
2022/06/21 01:18:31;;;;;;;;;6.00;6.00;;;;;;;;4991411;28;8896;-87
2022/06/21 01:21:00;;;;;;;;;8.75;6.75;;;;;;;;4992318;28;8902;-84
2022/06/21 01:23:38;;;;;;;;;6.50;6.50;;;;;;;;4984330;28;8900;-84
2022/06/21 01:26:17;;;;;;;;;7.50;5.00;;;;;;;;4987722;28;8898;-84
2022/06/21 01:28:48;;;;;;;;;7.50;7.50;;;;;;;;4991113;28;8871;-85
2022/06/21 01:31:16;;;;;;;;;6.50;6.50;;;;;;;;4987530;28;8836;-84
2022/06/21 01:33:44;;;;;;;;;7.75;7.25;;;;;;;;4991392;28;8890;-84
2022/06/21 01:36:16;;;;;;;;;8.50;8.50;;;;;;;;4976524;28;9721;-84
2022/06/21 01:38:54;;;;;;;;;8.75;8.75;;;;;;;;4975341;28;9746;-85
2022/06/21 01:41:24;;;;;;;;;11.00;9.25;;;;;;;;4982344;28;8871;-84
2022/06/21 01:43:57;;;;;;;;;7.25;7.25;;;;;;;;4994682;28;8880;-84
2022/06/21 01:46:30;;;;;;;;;9.33;9.33;;;;;;;;4979513;28;8868;-84
2022/06/21 01:49:00;;;;;;;;;7.00;5.25;;;;;;;;4989721;28;8906;-83
2022/06/21 01:51:34;;;;;;;;;11.50;11.50;;;;;;;;4992063;28;9300;-83
2022/06/21 01:54:02;;;;;;;;;7.25;7.25;;;;;;;;4983271;28;8891;-84
2022/06/21 01:56:32;;;;;;;;;10.50;8.25;;;;;;;;4979432;28;8868;-88
2022/06/21 01:59:06;;;;;;;;;8.50;8.50;;;;;;;;4987759;28;8886;-86
2022/06/21 02:01:41;;;;;;;;;8.00;6.50;;;;;;;;4982809;28;8843;-86
2022/06/21 02:04:09;;;;;;;;;8.00;8.00;;;;;;;;4973399;28;9015;-85
2022/06/21 02:06:41;;;;;;;;;8.00;7.00;;;;;;;;4981827;28;8891;-86
2022/06/21 02:09:13;;;;;;;;;6.00;6.00;;;;;;;;4973293;28;8883;-87
2022/06/21 02:11:45;;;;;;;;;10.25;10.25;;;;;;;;4972342;28;8873;-85
2022/06/21 02:14:30;;;;;;;;;10.25;9.50;;;;;;;;4973873;28;9632;-87
2022/06/21 02:17:05;;;;;;;;;7.00;7.00;;;;;;;;4974110;28;8878;-86
2022/06/21 02:19:38;;;;;;;;;8.50;7.75;;;;;;;;4973688;28;8902;-86
2022/06/21 02:22:06;;;;;;;;;8.50;8.50;;;;;;;;4973687;28;8912;-86
2022/06/21 02:24:34;;;;;;;;;12.00;8.25;;;;;;;;4976970;28;8896;-86
2022/06/21 02:27:04;;;;;;;;;10.25;7.00;;;;;;;;4989054;28;8915;-85
2022/06/21 02:29:33;;;;;;;;;8.25;8.25;;;;;;;;4992908;28;8867;-86
2022/06/21 02:32:01;;;;;;;;;7.75;7.00;;;;;;;;4987097;28;8861;-85
2022/06/21 02:34:33;;;;;;;;;11.50;8.75;;;;;;;;4989744;28;9675;-85
2022/06/21 02:37:02;;;;;;;;;7.00;7.00;;;;;;;;4982171;28;8900;-86
2022/06/21 02:39:31;;;;;;;;;9.00;9.00;;;;;;;;4995914;28;8872;-81
2022/06/21 02:42:02;;;;;;;;;14.00;12.00;;;;;;;;4984141;28;8907;-85
2022/06/21 02:44:36;;;;;;;;;9.75;9.75;;;;;;;;4990106;28;8870;-85
2022/06/21 02:47:12;;;;;;;;;15.00;12.00;;;;;;;;4991591;28;8892;-86
2022/06/21 02:49:42;;;;;;;;;13.00;11.00;;;;;;;;4995409;28;8855;-84
2022/06/21 02:52:15;;;;;;;;;10.50;10.50;;;;;;;;4994741;28;8868;-86
2022/06/21 02:54:47;;;;;;;;;12.00;12.00;;;;;;;;4992637;28;8855;-85
2022/06/21 02:57:17;;;;;;;;;13.75;10.75;;;;;;;;4987956;28;8892;-85
2022/06/21 02:59:48;;;;;;;;;12.00;12.00;;;;;;;;4992236;28;8880;-87
2022/06/21 03:02:19;;;;;;;;;11.25;11.25;;;;;;;;4966432;28;8886;-84
2022/06/21 03:04:49;;;;;;;;;13.00;11.50;;;;;;;;4990759;28;8933;-85
2022/06/21 03:07:26;;;;;;;;;12.00;12.00;;;;;;;;4984947;28;8882;-85
2022/06/21 03:09:54;;;;;;;;;10.00;10.00;;;;;;;;4991972;28;8898;-85
2022/06/21 03:12:23;;;;;;;;;11.25;10.00;;;;;;;;4990708;28;8864;-86
2022/06/21 03:14:55;;;;;;;;;11.25;11.00;;;;;;;;4996601;28;8939;-87
2022/06/21 03:17:27;;;;;;;;;14.25;11.00;;;;;;;;4987225;28;8937;-86
2022/06/21 03:19:55;;;;;;;;;11.00;11.00;;;;;;;;4995334;28;8883;-87
2022/06/21 03:22:25;;;;;;;;;10.00;10.00;;;;;;;;4988072;28;8871;-85
2022/06/21 03:24:53;;;;;;;;;12.25;12.00;;;;;;;;4990467;28;8886;-87
2022/06/21 03:27:27;;;;;;;;;12.75;10.75;;;;;;;;4986613;28;8915;-86
2022/06/21 03:29:56;;;;;;;;;11.25;11.25;;;;;;;;4991504;28;8886;-87
2022/06/21 03:32:24;;;;;;;;;13.25;13.25;;;;;;;;4987314;28;8819;-88
2022/06/21 03:34:53;;;;;;;;;14.25;13.50;;;;;;;;4988023;28;8884;-87
2022/06/21 03:37:21;;;;;;;;;12.25;8.75;;;;;;;;4989165;28;8915;-87
2022/06/21 03:42:36;;;;;;;;;10.50;10.50;;;;;;;;4987577;28;8847;-86
2022/06/21 03:45:10;;;;;;;;;10.00;10.00;;;;;;;;4993392;28;8901;-85
2022/06/21 03:47:41;;;;;;;;;11.50;10.00;;;;;;;;4988611;28;8871;-85
2022/06/21 03:50:12;;;;;;;;;11.75;10.75;;;;;;;;4987814;28;8898;-88
2022/06/21 03:52:43;;;;;;;;;12.75;10.00;;;;;;;;4992809;28;9753;-88
2022/06/21 03:55:23;;;;;;;;;10.75;10.75;;;;;;;;4987959;28;8929;-85
2022/06/21 03:57:56;;;;;;;;;13.25;11.00;;;;;;;;4981836;28;8891;-86
2022/06/21 04:00:26;;;;;;;;;10.00;10.00;;;;;;;;4986521;28;8790;-84
2022/06/21 04:02:56;;;;;;;;;11.00;11.00;;;;;;;;4986205;28;8983;-88
2022/06/21 04:05:28;;;;;;;;;10.50;10.50;;;;;;;;4986571;28;9214;-87
2022/06/21 04:07:59;;;;;;;;;11.75;11.25;;;;;;;;4974799;28;8901;-86
2022/06/21 04:10:37;;;;;;;;;12.50;10.75;;;;;;;;4990440;28;8867;-88
2022/06/21 04:13:11;;;;;;;;;9.67;8.33;;;;;;;;4983743;28;8877;-86
2022/06/21 04:15:46;;;;;;;;;12.00;12.00;;;;;;;;4996959;28;9733;-84
2022/06/21 04:18:19;;;;;;;;;12.00;10.67;;;;;;;;4984551;28;8947;-88
2022/06/21 04:20:53;;;;;;;;;11.67;11.67;;;;;;;;4990504;28;9124;-84
2022/06/21 04:23:26;;;;;;;;;16.67;12.67;;;;;;;;4988911;28;9045;-89
2022/06/21 04:25:57;;;;;;;;;9.67;9.33;;;;;;;;4988305;28;9168;-88
2022/06/21 04:28:28;;;;;;;;;13.67;11.67;;;;;;;;4984910;28;9075;-87
2022/06/21 04:31:03;;;;;;;;;9.00;9.00;;;;;;;;4983197;28;9688;-84
2022/06/21 04:33:34;;;;;;;;;9.67;9.00;;;;;;;;4989426;28;9157;-88
2022/06/21 04:36:07;;;;;;;;;12.33;12.00;;;;;;;;4991194;28;9236;-83
2022/06/21 04:38:37;;;;;;;;;15.33;15.33;;;;;;;;4987660;28;9116;-81
2022/06/21 04:41:08;;;;;;;;;10.33;10.33;;;;;;;;4989286;28;9208;-83
2022/06/21 04:43:42;;;;;;;;;10.67;10.67;;;;;;;;4990969;28;8941;-81
2022/06/21 04:46:17;;;;;;;;;10.00;8.00;;;;;;;;4981521;28;9867;-83
2022/06/21 04:48:49;;;;;;;;;10.00;9.67;;;;;;;;4990490;28;9321;-82
2022/06/21 04:51:21;;;;;;;;;10.67;10.67;;;;;;;;4983182;28;9239;-85
2022/06/21 04:53:53;;;;;;;;;9.00;9.00;;;;;;;;4982977;28;8994;-83
2022/06/21 04:56:31;;;;;;;;;11.67;11.67;;;;;;;;4984794;28;9059;-84
2022/06/21 04:58:59;;;;;;;;;12.00;12.00;;;;;;;;4984431;28;8979;-85
2022/06/21 05:01:30;;;;;;;;;12.67;11.00;;;;;;;;4982260;28;9713;-85
2022/06/21 05:04:00;;;;;;;;;10.00;10.00;;;;;;;;4982412;28;9141;-83
2022/06/21 05:06:28;;;;;;;;;11.67;10.00;;;;;;;;4978779;28;9099;-79
2022/06/21 05:08:55;;;;;;;;;11.67;10.00;;;;;;;;4982418;28;9143;-83
2022/06/21 05:11:23;;;;;;;;;17.33;14.00;;;;;;;;4985108;28;9027;-81
2022/06/21 05:13:54;;;;;;;;;10.67;10.67;;;;;;;;4984807;28;9456;-82
2022/06/21 05:16:25;;;;;;;;;11.67;11.67;;;;;;;;4984923;28;9283;-87
2022/06/21 05:18:57;;;;;;;;;6.67;6.67;;;;;;;;4977062;28;10017;-82
2022/06/21 05:21:32;;;;;;;;;11.67;11.67;;;;;;;;4981926;28;9116;-84
2022/06/21 05:24:01;;;;;;;;;11.33;11.33;;;;;;;;4987077;28;9117;-87
2022/06/21 05:26:34;;;;;;;;;15.33;13.00;;;;;;;;4984929;28;9139;-83
2022/06/21 05:29:05;;;;;;;;;13.67;11.67;;;;;;;;4983052;28;9205;-85
2022/06/21 05:31:36;;;;;;;;;13.67;11.33;;;;;;;;4978634;28;9090;-80
2022/06/21 05:34:11;;;;;;;;;13.00;13.00;;;;;;;;4981381;28;9031;-76
2022/06/21 05:36:40;;;;;;;;;15.33;13.67;;;;;;;;4983964;28;9215;-75
2022/06/21 05:39:14;;;;;;;;;14.67;14.67;;;;;;;;4980157;28;9021;-75
2022/06/21 05:41:44;;;;;;;;;14.00;12.00;;;;;;;;4989491;28;9037;-76
2022/06/21 05:44:13;;;;;;;;;15.00;13.67;;;;;;;;4979406;28;9044;-72
2022/06/21 05:46:44;;;;;;;;;12.25;12.25;;;;;;;;4982535;28;8993;-75
2022/06/21 05:49:20;;;;;;;;;11.25;11.00;;;;;;;;4984081;28;8868;-74
2022/06/21 05:51:48;;;;;;;;;14.25;12.25;;;;;;;;4982633;28;8964;-76
2022/06/21 05:54:19;;;;;;;;;15.50;13.75;;;;;;;;4989758;28;8860;-73
2022/06/21 05:56:47;;;;;;;;;14.00;14.00;;;;;;;;4989172;28;8967;-74
2022/06/21 05:59:16;;;;;;;;;12.00;12.00;;;;;;;;4988270;28;8891;-73
2022/06/21 06:01:48;;;;;;;;;13.00;10.50;;;;;;;;4976929;28;8877;-73
2022/06/21 06:04:24;;;;;;;;;15.00;15.00;;;;;;;;4970332;28;8858;-74
2022/06/21 06:06:53;;;;;;;;;17.00;13.67;;;;;;;;4969824;28;8872;-74
2022/06/21 06:09:25;;;;;;;;;17.00;15.00;;;;;;;;4972182;28;8970;-71
2022/06/21 06:12:01;;;;;;;;;14.00;14.00;;;;;;;;4973990;28;9869;-72
2022/06/21 06:14:35;;;;;;;;;17.67;16.33;;;;;;;;4985734;28;9114;-72
2022/06/21 06:17:06;;;;;;;;;21.33;19.67;;;;;;;;4990186;28;9921;-72
2022/06/21 06:19:40;;;;;;;;;22.67;22.67;;;;;;;;4977392;28;9070;-72
2022/06/21 06:22:15;;;;;;;;;19.33;18.00;;;;;;;;4984434;28;9207;-76
2022/06/21 06:24:46;;;;;;;;;23.67;23.67;;;;;;;;4985722;28;9114;-75
2022/06/21 06:27:30;;;;;;;;;30.67;28.67;;;;;;;;4994944;28;9275;-76
2022/06/21 06:30:00;;;;;;;;;34.00;29.33;;;;;;;;4991357;28;9405;-75
2022/06/21 06:32:32;;;;;;;;;21.00;21.00;;;;;;;;4978508;28;9147;-75
2022/06/21 06:35:02;;;;;;;;;21.67;20.00;;;;;;;;4989086;28;9134;-74
2022/06/21 06:37:36;;;;;;;;;17.67;16.00;;;;;;;;4982809;28;8969;-75
2022/06/21 06:40:06;;;;;;;;;17.75;15.00;;;;;;;;4991868;28;9146;-80
2022/06/21 06:42:38;;;;;;;;;14.25;14.00;;;;;;;;4993606;28;8879;-77
2022/06/21 06:45:14;;;;;;;;;17.50;12.75;;;;;;;;4986929;28;9274;-76
2022/06/21 06:47:43;;;;;;;;;10.00;10.00;;;;;;;;4983636;28;8859;-78
2022/06/21 06:50:18;;;;;;;;;13.75;13.75;;;;;;;;4994650;28;8868;-77
2022/06/21 06:52:50;;;;;;;;;12.50;12.50;;;;;;;;4983448;28;8885;-76
2022/06/21 06:55:22;;;;;;;;;13.00;13.00;;;;;;;;4990298;28;8866;-76
2022/06/21 06:57:53;;;;;;;;;10.75;10.75;;;;;;;;4977100;28;8894;-76
2022/06/21 07:00:23;;;;;;;;;11.75;11.75;;;;;;;;4993367;28;8879;-76
2022/06/21 07:02:54;;;;;;;;;12.00;12.00;;;;;;;;4986806;28;9680;-76
2022/06/21 07:05:26;;;;;;;;;16.75;13.25;;;;;;;;4991906;28;8863;-76
2022/06/21 07:07:55;;;;;;;;;9.25;9.25;;;;;;;;4985874;28;9687;-77
2022/06/21 07:10:24;;;;;;;;;8.00;8.00;;;;;;;;4986108;28;8920;-76
2022/06/21 07:12:53;;;;;;;;;12.25;12.25;;;;;;;;4988476;28;8863;-76
2022/06/21 07:15:29;;;;;;;;;13.50;13.25;;;;;;;;4987968;28;8989;-77
2022/06/21 07:17:58;;;;;;;;;11.75;9.50;;;;;;;;4983422;28;8919;-78
2022/06/21 07:20:29;;;;;;;;;13.25;13.25;;;;;;;;4989819;28;8879;-76
2022/06/21 07:22:57;;;;;;;;;14.25;13.25;;;;;;;;4992469;28;8863;-77
2022/06/21 07:25:30;;;;;;;;;14.25;12.75;;;;;;;;4990356;28;8868;-76
2022/06/21 07:28:01;;;;;;;;;13.00;12.25;;;;;;;;4989929;28;8889;-76
2022/06/21 07:30:38;;;;;;;;;13.00;13.00;;;;;;;;4989935;28;8781;-77
2022/06/21 07:33:11;;;;;;;;;17.00;16.25;;;;;;;;4987252;28;8895;-76
2022/06/21 07:35:43;;;;;;;;;8.25;8.00;;;;;;;;4983851;28;8879;-76
2022/06/21 07:38:14;;;;;;;;;11.00;11.00;;;;;;;;4991935;28;8863;-76
2022/06/21 07:40:44;;;;;;;;;12.50;12.25;;;;;;;;4995368;28;9050;-76
2022/06/21 07:43:15;;;;;;;;;13.75;12.50;;;;;;;;4990791;28;8966;-77
2022/06/21 07:45:46;;;;;;;;;9.00;8.75;;;;;;;;4989087;28;8859;-76
2022/06/21 07:48:17;;;;;;;;;14.00;12.75;;;;;;;;4994481;28;8879;-76
2022/06/21 07:50:49;;;;;;;;;9.75;9.75;;;;;;;;4988011;28;8879;-76
2022/06/21 07:53:20;;;;;;;;;9.50;9.50;;;;;;;;4990369;28;8984;-76
2022/06/21 07:55:51;;;;;;;;;10.75;10.75;;;;;;;;4988949;28;8873;-76
2022/06/21 07:58:24;;;;;;;;;10.50;10.50;;;;;;;;4990955;28;9004;-75
2022/06/21 08:06:45;;;;;;;;;10.75;10.75;;;;;;;;4984661;28;8889;-76
2022/06/21 08:09:21;;;;;;;;;13.00;13.00;;;;;;;;4988711;28;9011;-76
2022/06/21 08:11:50;;;;;;;;;14.75;14.75;;;;;;;;4986506;28;8916;-76
2022/06/21 08:14:18;;;;;;;;;14.50;13.25;;;;;;;;4986677;28;8892;-76
2022/06/21 08:16:48;;;;;;;;;9.75;9.00;;;;;;;;4982811;28;8901;-75
2022/06/21 08:19:22;;;;;;;;;9.50;9.50;;;;;;;;4990836;28;8900;-77
2022/06/21 08:21:55;;;;;;;;;11.00;11.00;;;;;;;;4983385;28;8888;-77
2022/06/21 08:24:27;;;;;;;;;12.75;10.50;;;;;;;;4992451;28;8924;-76
2022/06/21 08:26:58;;;;;;;;;13.75;13.75;;;;;;;;4993171;28;8886;-77
2022/06/21 08:29:28;;;;;;;;;13.00;13.00;;;;;;;;4985381;28;8871;-77
2022/06/21 08:31:59;;;;;;;;;11.25;9.75;;;;;;;;4980493;28;8933;-77
2022/06/21 08:34:34;;;;;;;;;12.25;11.25;;;;;;;;4992856;28;8873;-76
2022/06/21 08:37:07;;;;;;;;;13.00;13.00;;;;;;;;4980782;28;8898;-75
2022/06/21 08:39:39;;;;;;;;;11.60;11.60;;;;;;;;4996455;28;8851;-76
2022/06/21 08:42:59;;;;;;;;;12.00;12.00;;;;;;;;4985087;28;8900;-76
2022/06/21 08:46:03;;;;;;;;;11.75;11.75;;;;;;;;4979071;28;8902;-76
2022/06/21 08:49:03;;;;;;;;;13.40;12.00;;;;;;;;4931852;28;8910;-76
2022/06/21 08:52:09;;;;;;;;;13.00;13.00;;;;;;;;4984872;28;8951;-76
2022/06/21 08:54:48;;;;;;;;;12.00;12.00;;;;;;;;4989499;28;8984;-77
2022/06/21 08:57:20;;;;;;;;;11.80;11.80;;;;;;;;4995869;28;8883;-76
2022/06/21 08:59:58;;;;;;;;;13.80;12.60;;;;;;;;4988032;28;8896;-77
2022/06/21 09:02:36;;;;;;;;;11.00;11.00;;;;;;;;4986465;28;8853;-77
2022/06/21 09:05:12;;;;;;;;;10.40;10.40;;;;;;;;4985808;28;9621;-77
2022/06/21 09:07:56;;;;;;;;;11.00;11.00;;;;;;;;4981864;28;9695;-76
2022/06/21 09:10:42;;;;;;;;;11.20;11.20;;;;;;;;4986655;28;8883;-77
2022/06/21 09:13:27;;;;;;;;;9.60;9.60;;;;;;;;4985440;28;8990;-76
2022/06/21 09:16:03;;;;;;;;;12.80;11.40;;;;;;;;4982910;28;8898;-76
2022/06/21 09:18:43;;;;;;;;;9.80;9.80;;;;;;;;4981846;28;8889;-77
2022/06/21 09:21:16;;;;;;;;;10.80;9.20;;;;;;;;4990348;28;8909;-77
2022/06/21 09:24:03;;;;;;;;;13.60;13.60;;;;;;;;4994300;28;8872;-77
2022/06/21 09:26:50;;;;;;;;;12.20;12.20;;;;;;;;4983068;28;9678;-77
2022/06/21 09:29:27;;;;;;;;;10.40;10.40;;;;;;;;4988328;28;8901;-77
2022/06/21 09:32:13;;;;;;;;;11.20;10.60;;;;;;;;4984889;28;8819;-78
2022/06/21 09:34:50;;;;;;;;;10.40;9.80;;;;;;;;4978883;28;8879;-78
2022/06/21 09:37:28;;;;;;;;;10.00;10.00;;;;;;;;4988397;28;8883;-77
2022/06/21 09:40:02;;;;;;;;;11.80;11.80;;;;;;;;4986004;28;8868;-77
2022/06/21 09:42:35;;;;;;;;;10.20;10.20;;;;;;;;4993731;28;8894;-77
2022/06/21 09:45:10;;;;;;;;;6.00;6.00;;;;;;;;4988658;28;8874;-77
2022/06/21 09:47:47;;;;;;;;;10.00;10.00;;;;;;;;4982104;28;8879;-77
2022/06/21 09:50:21;;;;;;;;;8.80;8.80;;;;;;;;4984049;28;8910;-77
2022/06/21 09:52:56;;;;;;;;;10.40;10.40;;;;;;;;4990822;28;8863;-78
2022/06/21 09:55:29;;;;;;;;;12.80;12.80;;;;;;;;4991989;28;9720;-77
2022/06/21 09:58:03;;;;;;;;;7.80;7.80;;;;;;;;4987523;28;8870;-78
2022/06/21 10:00:38;;;;;;;;;8.20;8.20;;;;;;;;4987292;28;9570;-78
2022/06/21 10:03:16;;;;;;;;;12.60;10.60;;;;;;;;4976482;28;9137;-77
2022/06/21 10:05:49;;;;;;;;;10.20;10.20;;;;;;;;4969034;28;8877;-77
2022/06/21 10:08:25;;;;;;;;;10.00;10.00;;;;;;;;4970598;28;9664;-77
2022/06/21 10:11:05;;;;;;;;;8.80;8.80;;;;;;;;4978596;28;8871;-76
2022/06/21 10:14:17;;;;;;;;;9.20;8.20;;;;;;;;4971304;28;9053;-76
2022/06/21 10:17:13;;;;;;;;;8.80;7.60;;;;;;;;4970257;28;8899;-77
2022/06/21 10:19:50;;;;;;;;;8.80;8.80;;;;;;;;4972711;28;8907;-76
2022/06/21 10:22:34;;;;;;;;;9.60;9.40;;;;;;;;4990644;28;8892;-76
2022/06/21 10:25:35;;;;;;;;;10.20;10.20;;;;;;;;4988125;28;8895;-77
2022/06/21 10:28:35;;;;;;;;;12.80;12.20;;;;;;;;4984263;28;8886;-76
2022/06/21 10:31:30;;;;;;;;;11.40;11.40;;;;;;;;4983041;28;8933;-76
2022/06/21 10:34:42;;;;;;;;;9.80;9.00;;;;;;;;4971485;28;8903;-76
2022/06/21 10:37:32;;;;;;;;;8.80;8.80;;;;;;;;4986537;28;8883;-77
2022/06/21 10:40:23;;;;;;;;;10.80;10.80;;;;;;;;4976856;28;8894;-77
2022/06/21 10:43:10;;;;;;;;;10.60;10.60;;;;;;;;4986465;28;9019;-77
2022/06/21 10:45:42;;;;;;;;;12.20;10.40;;;;;;;;4988500;28;9007;-77
2022/06/21 10:48:39;;;;;;;;;9.80;9.80;;;;;;;;4986428;28;8880;-77
2022/06/21 10:51:15;;;;;;;;;8.00;8.00;;;;;;;;4978373;28;8883;-77
2022/06/21 10:54:06;;;;;;;;;10.40;10.40;;;;;;;;4987586;28;8985;-77
2022/06/21 11:02:28;;;;;;;;;11.60;9.80;;;;;;;;4979533;28;8941;-78
2022/06/21 11:04:59;;;;;;;;;9.20;9.20;;;;;;;;4985226;28;8871;-77
2022/06/21 11:07:34;;;;;;;;;13.40;12.00;;;;;;;;4982508;28;8882;-80
2022/06/21 11:10:04;;;;;;;;;12.40;12.40;;;;;;;;4981788;28;8915;-77
2022/06/21 11:12:56;;;;;;;;;10.00;10.00;;;;;;;;4985385;28;8888;-78
2022/06/21 11:15:41;;;;;;;;;9.00;9.00;;;;;;;;4988443;28;8883;-78
2022/06/21 11:18:18;;;;;;;;;11.00;10.00;;;;;;;;4983764;28;9011;-78
2022/06/21 11:20:57;;;;;;;;;9.80;9.80;;;;;;;;4986381;28;8865;-76
2022/06/21 11:23:32;;;;;;;;;10.00;9.20;;;;;;;;4987413;28;8961;-75
2022/06/21 11:26:06;;;;;;;;;9.80;9.80;;;;;;;;4985519;28;8917;-72
2022/06/21 11:28:42;;;;;;;;;8.80;8.80;;;;;;;;4989619;28;8852;-73
2022/06/21 11:31:15;;;;;;;;;10.00;10.00;;;;;;;;4986595;28;8822;-75
2022/06/21 11:33:50;;;;;;;;;8.80;8.40;;;;;;;;4984964;28;8842;-74
2022/06/21 11:36:26;;;;;;;;;10.60;10.00;;;;;;;;4987811;28;8975;-74
2022/06/21 11:39:04;;;;;;;;;8.60;8.60;;;;;;;;4985359;28;8991;-74
2022/06/21 11:42:05;;;;;;;;;7.60;7.60;;;;;;;;4990242;28;9010;-75
2022/06/21 11:44:48;;;;;;;;;9.20;9.20;;;;;;;;4985317;28;8906;-75
2022/06/21 11:47:28;;;;;;;;;7.80;6.60;;;;;;;;4986667;28;8992;-75
2022/06/21 11:50:00;;;;;;;;;9.80;8.00;;;;;;;;4993470;28;8894;-76
2022/06/21 11:52:50;;;;;;;;;8.00;8.00;;;;;;;;4981749;28;8891;-75
2022/06/21 11:55:22;;;;;;;;;6.40;6.40;;;;;;;;4980015;28;8866;-74
2022/06/21 11:57:53;;;;;;;;;7.00;7.00;;;;;;;;4983171;28;9499;-76
2022/06/21 12:00:25;;;;;;;;;8.00;8.00;;;;;;;;4986405;28;8882;-77
2022/06/21 12:02:56;;;;;;;;;6.00;6.00;;;;;;;;4975277;28;8969;-79
2022/06/21 12:05:31;;;;;;;;;5.40;5.40;;;;;;;;4992960;28;8875;-76
2022/06/21 12:08:08;;;;;;;;;8.00;8.00;;;;;;;;4983430;28;9908;-73
2022/06/21 12:10:45;;;;;;;;;11.40;9.40;;;;;;;;4982029;28;8891;-73
2022/06/21 12:13:22;;;;;;;;;7.00;7.00;;;;;;;;4981151;28;8883;-73
2022/06/21 12:16:01;;;;;;;;;7.00;7.00;;;;;;;;4978045;28;8997;-74
2022/06/21 12:18:31;;;;;;;;;5.00;5.00;;;;;;;;4982118;28;8859;-74
2022/06/21 12:21:03;;;;;;;;;8.60;7.00;;;;;;;;4985505;28;8877;-72
2022/06/21 12:23:41;;;;;;;;;7.60;7.60;;;;;;;;4988003;28;8871;-75
2022/06/21 12:26:12;;;;;;;;;8.40;7.80;;;;;;;;4984009;28;8899;-74
2022/06/21 12:28:40;;;;;;;;;6.60;6.60;;;;;;;;4985443;28;8983;-73
2022/06/21 12:31:14;;;;;;;;;9.60;6.00;;;;;;;;4982492;28;11137;-74
2022/06/21 12:33:44;;;;;;;;;6.00;6.00;;;;;;;;4984658;28;8914;-74
2022/06/21 12:36:25;;;;;;;;;6.60;6.40;;;;;;;;4983078;28;8994;-74
2022/06/21 12:38:57;;;;;;;;;5.00;5.00;;;;;;;;4986073;28;8894;-74
2022/06/21 12:41:40;;;;;;;;;5.00;5.00;;;;;;;;4988235;28;8900;-74
2022/06/21 12:44:18;;;;;;;;;6.80;5.00;;;;;;;;4984167;28;8898;-74
2022/06/21 12:46:49;;;;;;;;;3.00;3.00;;;;;;;;4981389;28;9312;-74
2022/06/21 12:49:41;;;;;;;;;4.00;4.00;;;;;;;;4985600;28;8925;-73
2022/06/21 12:52:18;;;;;;;;;6.00;6.00;;;;;;;;4982947;28;8889;-73
2022/06/21 12:54:59;;;;;;;;;4.00;4.00;;;;;;;;4982755;28;8903;-73
2022/06/21 12:57:49;;;;;;;;;5.00;5.00;;;;;;;;4980409;28;8863;-73
2022/06/21 13:00:28;;;;;;;;;6.00;4.00;;;;;;;;4984787;28;9561;-73
2022/06/21 13:03:49;;;;;;;;;4.40;4.40;;;;;;;;4982425;28;8892;-73
2022/06/21 13:06:39;;;;;;;;;3.00;3.00;;;;;;;;4930537;28;9858;-74
2022/06/21 13:09:29;;;;;;;;;7.60;4.60;;;;;;;;4983188;28;8989;-73
2022/06/21 13:12:21;;;;;;;;;4.00;4.00;;;;;;;;4980795;28;8879;-77
2022/06/21 13:15:04;;;;;;;;;4.60;4.60;;;;;;;;4979176;28;8863;-76
2022/06/21 13:17:55;;;;;;;;;4.60;4.60;;;;;;;;4978657;28;9931;-76
2022/06/21 13:20:26;;;;;;;;;3.00;3.00;;;;;;;;4981362;28;9036;-76
2022/06/21 13:23:01;;;;;;;;;5.00;5.00;;;;;;;;4981549;28;9021;-74
2022/06/21 13:25:41;;;;;;;;;2.40;2.40;;;;;;;;4974563;28;8884;-74
2022/06/21 13:28:33;;;;;;;;;4.60;3.80;;;;;;;;4978627;28;8870;-76
2022/06/21 13:31:04;;;;;;;;;4.20;4.20;;;;;;;;4977183;28;8824;-74
2022/06/21 13:33:53;;;;;;;;;4.00;4.00;;;;;;;;4975516;28;9213;-74
2022/06/21 13:36:27;;;;;;;;;3.00;3.00;;;;;;;;4976740;28;8890;-74
2022/06/21 13:38:58;;;;;;;;;5.60;5.60;;;;;;;;4976138;28;8891;-74
2022/06/21 13:44:21;;;;;;;;;7.80;6.00;;;;;;;;4976192;28;8847;-74
2022/06/21 13:46:51;;;;;;;;;4.80;4.80;;;;;;;;4975265;28;8874;-73
2022/06/21 13:49:25;;;;;;;;;1.20;1.20;;;;;;;;4976770;28;8876;-74
2022/06/21 13:52:01;;;;;;;;;3.00;3.00;;;;;;;;4977952;28;8945;-73
2022/06/21 13:54:32;;;;;;;;;6.00;4.60;;;;;;;;4979183;28;8902;-75
2022/06/21 13:57:04;;;;;;;;;7.00;7.00;;;;;;;;4982613;28;8969;-76
2022/06/21 13:59:36;;;;;;;;;5.00;3.80;;;;;;;;4973163;28;8882;-76
2022/06/21 14:02:09;;;;;;;;;3.00;3.00;;;;;;;;4977015;28;8868;-75
2022/06/21 14:04:46;;;;;;;;;4.00;4.00;;;;;;;;4972928;28;9050;-76
2022/06/21 14:07:20;;;;;;;;;4.60;4.60;;;;;;;;4973682;28;8881;-76
2022/06/21 14:09:55;;;;;;;;;3.40;3.40;;;;;;;;4975008;28;8881;-76
2022/06/21 14:12:27;;;;;;;;;5.00;5.00;;;;;;;;4977044;28;8886;-75
2022/06/21 14:14:59;;;;;;;;;5.40;5.20;;;;;;;;4983697;28;8878;-76
2022/06/21 14:17:33;;;;;;;;;4.00;4.00;;;;;;;;4977668;28;8850;-75
2022/06/21 14:20:08;;;;;;;;;2.40;2.40;;;;;;;;4985241;28;9658;-76
2022/06/21 14:22:43;;;;;;;;;8.40;5.60;;;;;;;;4981118;28;8910;-75
2022/06/21 14:25:19;;;;;;;;;4.20;4.20;;;;;;;;4981399;28;8909;-76
2022/06/21 14:27:51;;;;;;;;;6.00;6.00;;;;;;;;4980051;28;8875;-75
2022/06/21 14:30:22;;;;;;;;;5.40;5.00;;;;;;;;4984810;28;8890;-76
2022/06/21 14:32:52;;;;;;;;;5.00;5.00;;;;;;;;4983373;28;8859;-75
2022/06/21 14:35:24;;;;;;;;;4.00;4.00;;;;;;;;4982937;28;8875;-75
2022/06/21 14:37:56;;;;;;;;;4.20;4.20;;;;;;;;4991743;28;8892;-74
2022/06/21 14:40:29;;;;;;;;;4.00;4.00;;;;;;;;4988686;28;8888;-74
2022/06/21 14:43:00;;;;;;;;;3.80;3.80;;;;;;;;4990712;28;8880;-72
2022/06/21 14:45:38;;;;;;;;;7.00;5.40;;;;;;;;4989448;28;8916;-73
2022/06/21 14:48:15;;;;;;;;;5.80;5.80;;;;;;;;4983751;28;8893;-74
2022/06/21 14:50:48;;;;;;;;;7.00;5.60;;;;;;;;4975379;28;8927;-74
2022/06/21 14:53:47;;;;;;;;;4.40;4.40;;;;;;;;4986606;28;8884;-74
2022/06/21 14:56:24;;;;;;;;;4.80;4.80;;;;;;;;4958295;28;8913;-76
2022/06/21 14:59:05;;;;;;;;;4.20;4.20;;;;;;;;4989057;28;8894;-75
2022/06/21 15:01:42;;;;;;;;;6.00;4.60;;;;;;;;4983989;28;8885;-73
2022/06/21 15:04:21;;;;;;;;;6.60;4.80;;;;;;;;4994785;28;8884;-74
2022/06/21 15:07:07;;;;;;;;;3.40;3.40;;;;;;;;4979920;28;8885;-75
2022/06/21 15:09:43;;;;;;;;;5.00;5.00;;;;;;;;4988899;28;8886;-74
2022/06/21 15:12:14;;;;;;;;;4.00;4.00;;;;;;;;4993485;28;8891;-74
2022/06/21 15:14:44;;;;;;;;;4.00;4.00;;;;;;;;4987029;28;8896;-73
2022/06/21 15:17:18;;;;;;;;;4.20;4.20;;;;;;;;4988189;28;8859;-73
2022/06/21 15:19:56;;;;;;;;;5.00;5.00;;;;;;;;4987752;28;8888;-73
2022/06/21 15:22:45;;;;;;;;;3.40;2.80;;;;;;;;4986457;28;8871;-73
2022/06/21 15:25:40;;;;;;;;;3.40;3.40;;;;;;;;5003675;28;9057;-75
2022/06/21 15:28:21;;;;;;;;;3.20;3.20;;;;;;;;4970503;28;8879;-76
2022/06/21 15:30:54;;;;;;;;;6.40;5.00;;;;;;;;4985201;28;8934;-76
2022/06/21 15:33:28;;;;;;;;;5.00;5.00;;;;;;;;4984683;28;8852;-76
2022/06/21 15:36:29;;;;;;;;;5.00;5.00;;;;;;;;4980364;28;8890;-77
2022/06/21 15:39:08;;;;;;;;;5.80;5.80;;;;;;;;4990059;28;8876;-78
2022/06/21 15:41:39;;;;;;;;;4.60;4.60;;;;;;;;4987383;28;10131;-79
2022/06/21 15:44:26;;;;;;;;;4.40;4.40;;;;;;;;4988591;28;8879;-83
2022/06/21 15:52:31;;;;;;;;;4.20;4.20;;;;;;;;4976368;28;8859;-77